sensor_id;sensor_type;location;lat;lon;timestamp;P1;durP1;ratioP1;P2;durP2;ratioP2
41532;SDS011;27262;-35.248;149.138;2024-03-06T00:02:13;5.70;;;2.08;;
41532;SDS011;27262;-35.248;149.138;2024-03-06T00:04:43;10.25;;;1.98;;
41532;SDS011;27262;-35.248;149.138;2024-03-06T00:07:14;6.78;;;2.13;;
41532;SDS011;27262;-35.248;149.138;2024-03-06T00:09:44;6.93;;;1.92;;
41532;SDS011;27262;-35.248;149.138;2024-03-06T00:12:15;6.93;;;2.28;;
41532;SDS011;27262;-35.248;149.138;2024-03-06T00:14:45;4.93;;;1.77;;
41532;SDS011;27262;-35.248;149.138;2024-03-06T00:17:16;11.48;;;2.10;;
41532;SDS011;27262;-35.248;149.138;2024-03-06T00:19:47;8.65;;;2.40;;
41532;SDS011;27262;-35.248;149.138;2024-03-06T00:22:17;9.65;;;2.50;;
41532;SDS011;27262;-35.248;149.138;2024-03-06T00:24:50;11.50;;;2.30;;
41532;SDS011;27262;-35.248;149.138;2024-03-06T00:27:21;6.82;;;2.30;;
41532;SDS011;27262;-35.248;149.138;2024-03-06T00:29:51;4.47;;;2.50;;
41532;SDS011;27262;-35.248;149.138;2024-03-06T00:32:21;9.10;;;1.67;;
41532;SDS011;27262;-35.248;149.138;2024-03-06T00:34:52;6.00;;;1.90;;
41532;SDS011;27262;-35.248;149.138;2024-03-06T00:37:22;8.27;;;2.20;;
41532;SDS011;27262;-35.248;149.138;2024-03-06T00:39:53;11.00;;;2.50;;
41532;SDS011;27262;-35.248;149.138;2024-03-06T00:42:23;8.77;;;2.20;;
41532;SDS011;27262;-35.248;149.138;2024-03-06T00:44:53;12.68;;;2.38;;
41532;SDS011;27262;-35.248;149.138;2024-03-06T00:47:24;9.77;;;2.10;;
41532;SDS011;27262;-35.248;149.138;2024-03-06T00:49:54;5.10;;;2.17;;
41532;SDS011;27262;-35.248;149.138;2024-03-06T00:52:24;6.28;;;2.33;;
41532;SDS011;27262;-35.248;149.138;2024-03-06T00:54:55;6.35;;;1.95;;
41532;SDS011;27262;-35.248;149.138;2024-03-06T00:57:26;12.98;;;2.25;;
41532;SDS011;27262;-35.248;149.138;2024-03-06T00:59:56;10.73;;;2.25;;
41532;SDS011;27262;-35.248;149.138;2024-03-06T01:02:27;7.05;;;2.22;;
41532;SDS011;27262;-35.248;149.138;2024-03-06T01:04:57;5.82;;;1.50;;
41532;SDS011;27262;-35.248;149.138;2024-03-06T01:07:27;7.82;;;1.85;;
41532;SDS011;27262;-35.248;149.138;2024-03-06T01:09:59;13.05;;;2.47;;
41532;SDS011;27262;-35.248;149.138;2024-03-06T01:12:32;4.65;;;1.75;;
41532;SDS011;27262;-35.248;149.138;2024-03-06T01:15:03;5.15;;;1.92;;
41532;SDS011;27262;-35.248;149.138;2024-03-06T01:17:34;6.82;;;2.40;;
41532;SDS011;27262;-35.248;149.138;2024-03-06T01:20:05;7.13;;;1.80;;
41532;SDS011;27262;-35.248;149.138;2024-03-06T01:22:36;3.72;;;1.48;;
41532;SDS011;27262;-35.248;149.138;2024-03-06T01:25:06;5.15;;;1.73;;
41532;SDS011;27262;-35.248;149.138;2024-03-06T01:27:37;4.18;;;1.80;;
41532;SDS011;27262;-35.248;149.138;2024-03-06T01:30:07;4.57;;;1.75;;
41532;SDS011;27262;-35.248;149.138;2024-03-06T01:32:38;3.33;;;1.65;;
41532;SDS011;27262;-35.248;149.138;2024-03-06T01:35:08;8.85;;;2.00;;
41532;SDS011;27262;-35.248;149.138;2024-03-06T01:37:39;5.30;;;1.98;;
41532;SDS011;27262;-35.248;149.138;2024-03-06T01:40:10;5.85;;;1.55;;
41532;SDS011;27262;-35.248;149.138;2024-03-06T01:42:42;4.90;;;1.98;;
41532;SDS011;27262;-35.248;149.138;2024-03-06T01:45:12;8.18;;;1.85;;
41532;SDS011;27262;-35.248;149.138;2024-03-06T01:47:42;4.45;;;1.75;;
41532;SDS011;27262;-35.248;149.138;2024-03-06T01:50:13;4.60;;;1.80;;
41532;SDS011;27262;-35.248;149.138;2024-03-06T01:52:44;2.65;;;1.52;;
41532;SDS011;27262;-35.248;149.138;2024-03-06T01:55:16;5.75;;;1.88;;
41532;SDS011;27262;-35.248;149.138;2024-03-06T01:57:47;4.55;;;1.88;;
41532;SDS011;27262;-35.248;149.138;2024-03-06T02:00:18;4.25;;;1.70;;
41532;SDS011;27262;-35.248;149.138;2024-03-06T02:02:49;4.20;;;1.80;;
41532;SDS011;27262;-35.248;149.138;2024-03-06T02:05:19;3.60;;;1.92;;
41532;SDS011;27262;-35.248;149.138;2024-03-06T02:07:51;4.82;;;1.73;;
41532;SDS011;27262;-35.248;149.138;2024-03-06T02:10:24;3.72;;;1.55;;
41532;SDS011;27262;-35.248;149.138;2024-03-06T02:12:56;3.38;;;1.52;;
41532;SDS011;27262;-35.248;149.138;2024-03-06T02:15:26;3.67;;;1.50;;
41532;SDS011;27262;-35.248;149.138;2024-03-06T02:17:57;4.32;;;1.70;;
41532;SDS011;27262;-35.248;149.138;2024-03-06T02:20:28;3.90;;;1.67;;
41532;SDS011;27262;-35.248;149.138;2024-03-06T02:22:59;4.38;;;1.50;;
41532;SDS011;27262;-35.248;149.138;2024-03-06T02:25:29;5.53;;;1.67;;
41532;SDS011;27262;-35.248;149.138;2024-03-06T02:27:59;3.40;;;1.60;;
41532;SDS011;27262;-35.248;149.138;2024-03-06T02:30:30;5.07;;;1.65;;
41532;SDS011;27262;-35.248;149.138;2024-03-06T02:33:05;5.22;;;1.77;;
41532;SDS011;27262;-35.248;149.138;2024-03-06T02:35:36;7.72;;;1.40;;
41532;SDS011;27262;-35.248;149.138;2024-03-06T02:38:08;3.33;;;1.30;;
41532;SDS011;27262;-35.248;149.138;2024-03-06T02:40:39;2.53;;;1.25;;
41532;SDS011;27262;-35.248;149.138;2024-03-06T02:43:11;6.53;;;1.75;;
41532;SDS011;27262;-35.248;149.138;2024-03-06T02:45:42;5.50;;;1.75;;
41532;SDS011;27262;-35.248;149.138;2024-03-06T02:48:13;5.68;;;1.90;;
41532;SDS011;27262;-35.248;149.138;2024-03-06T02:50:43;6.82;;;1.92;;
41532;SDS011;27262;-35.248;149.138;2024-03-06T02:53:13;5.78;;;1.75;;
41532;SDS011;27262;-35.248;149.138;2024-03-06T02:55:44;5.60;;;2.05;;
41532;SDS011;27262;-35.248;149.138;2024-03-06T02:58:15;5.38;;;1.48;;
41532;SDS011;27262;-35.248;149.138;2024-03-06T03:00:45;2.33;;;1.35;;
41532;SDS011;27262;-35.248;149.138;2024-03-06T03:03:16;2.15;;;1.52;;
41532;SDS011;27262;-35.248;149.138;2024-03-06T03:05:47;3.50;;;1.50;;
41532;SDS011;27262;-35.248;149.138;2024-03-06T03:08:20;4.53;;;1.40;;
41532;SDS011;27262;-35.248;149.138;2024-03-06T03:10:57;3.85;;;1.77;;
41532;SDS011;27262;-35.248;149.138;2024-03-06T03:13:27;4.47;;;1.42;;
41532;SDS011;27262;-35.248;149.138;2024-03-06T03:15:59;5.50;;;1.85;;
41532;SDS011;27262;-35.248;149.138;2024-03-06T03:18:32;8.27;;;1.80;;
41532;SDS011;27262;-35.248;149.138;2024-03-06T03:21:02;9.93;;;1.88;;
41532;SDS011;27262;-35.248;149.138;2024-03-06T03:23:37;3.20;;;1.60;;
41532;SDS011;27262;-35.248;149.138;2024-03-06T03:26:10;5.35;;;1.55;;
41532;SDS011;27262;-35.248;149.138;2024-03-06T03:28:40;2.08;;;1.13;;
41532;SDS011;27262;-35.248;149.138;2024-03-06T03:31:11;5.75;;;1.75;;
41532;SDS011;27262;-35.248;149.138;2024-03-06T03:33:41;6.93;;;1.40;;
41532;SDS011;27262;-35.248;149.138;2024-03-06T03:36:12;2.00;;;1.30;;
41532;SDS011;27262;-35.248;149.138;2024-03-06T03:38:42;2.42;;;1.50;;
41532;SDS011;27262;-35.248;149.138;2024-03-06T03:41:12;3.67;;;1.60;;
41532;SDS011;27262;-35.248;149.138;2024-03-06T03:43:45;1.67;;;1.23;;
41532;SDS011;27262;-35.248;149.138;2024-03-06T03:46:15;4.22;;;1.10;;
41532;SDS011;27262;-35.248;149.138;2024-03-06T03:48:45;3.10;;;1.17;;
41532;SDS011;27262;-35.248;149.138;2024-03-06T03:51:16;4.05;;;1.65;;
41532;SDS011;27262;-35.248;149.138;2024-03-06T03:53:46;4.07;;;1.30;;
41532;SDS011;27262;-35.248;149.138;2024-03-06T03:56:19;3.00;;;1.48;;
41532;SDS011;27262;-35.248;149.138;2024-03-06T03:58:50;6.28;;;1.50;;
41532;SDS011;27262;-35.248;149.138;2024-03-06T04:01:21;6.35;;;1.75;;
41532;SDS011;27262;-35.248;149.138;2024-03-06T04:03:51;6.32;;;1.35;;
41532;SDS011;27262;-35.248;149.138;2024-03-06T04:06:22;4.28;;;1.40;;
41532;SDS011;27262;-35.248;149.138;2024-03-06T04:09:11;4.63;;;1.10;;
41532;SDS011;27262;-35.248;149.138;2024-03-06T04:11:43;2.95;;;1.30;;
41532;SDS011;27262;-35.248;149.138;2024-03-06T04:14:13;2.05;;;1.15;;
41532;SDS011;27262;-35.248;149.138;2024-03-06T04:16:43;3.60;;;1.35;;
41532;SDS011;27262;-35.248;149.138;2024-03-06T04:19:15;3.95;;;1.30;;
41532;SDS011;27262;-35.248;149.138;2024-03-06T04:21:45;3.45;;;1.63;;
41532;SDS011;27262;-35.248;149.138;2024-03-06T04:24:15;4.20;;;1.25;;
41532;SDS011;27262;-35.248;149.138;2024-03-06T04:26:46;3.00;;;1.38;;
41532;SDS011;27262;-35.248;149.138;2024-03-06T04:29:16;2.05;;;1.10;;
41532;SDS011;27262;-35.248;149.138;2024-03-06T04:31:46;2.80;;;1.30;;
41532;SDS011;27262;-35.248;149.138;2024-03-06T04:34:17;3.75;;;1.20;;
41532;SDS011;27262;-35.248;149.138;2024-03-06T04:36:48;2.30;;;1.20;;
41532;SDS011;27262;-35.248;149.138;2024-03-06T04:39:19;3.08;;;1.20;;
41532;SDS011;27262;-35.248;149.138;2024-03-06T04:41:50;2.03;;;1.30;;
41532;SDS011;27262;-35.248;149.138;2024-03-06T04:44:20;3.25;;;1.48;;
41532;SDS011;27262;-35.248;149.138;2024-03-06T04:46:51;2.90;;;1.30;;
41532;SDS011;27262;-35.248;149.138;2024-03-06T04:49:21;3.65;;;1.75;;
41532;SDS011;27262;-35.248;149.138;2024-03-06T04:51:52;3.05;;;1.10;;
41532;SDS011;27262;-35.248;149.138;2024-03-06T04:54:22;2.60;;;1.10;;
41532;SDS011;27262;-35.248;149.138;2024-03-06T04:56:52;1.65;;;0.93;;
41532;SDS011;27262;-35.248;149.138;2024-03-06T04:59:23;3.35;;;1.23;;
41532;SDS011;27262;-35.248;149.138;2024-03-06T05:01:54;3.45;;;1.30;;
41532;SDS011;27262;-35.248;149.138;2024-03-06T05:04:25;4.10;;;1.40;;
41532;SDS011;27262;-35.248;149.138;2024-03-06T05:07:10;3.22;;;1.02;;
41532;SDS011;27262;-35.248;149.138;2024-03-06T05:09:57;2.78;;;1.45;;
41532;SDS011;27262;-35.248;149.138;2024-03-06T05:12:44;1.38;;;0.98;;
41532;SDS011;27262;-35.248;149.138;2024-03-06T05:15:31;1.15;;;0.80;;
41532;SDS011;27262;-35.248;149.138;2024-03-06T05:18:16;2.38;;;1.00;;
41532;SDS011;27262;-35.248;149.138;2024-03-06T05:21:03;1.85;;;0.98;;
41532;SDS011;27262;-35.248;149.138;2024-03-06T05:23:50;3.13;;;1.10;;
41532;SDS011;27262;-35.248;149.138;2024-03-06T05:26:37;1.23;;;0.90;;
41532;SDS011;27262;-35.248;149.138;2024-03-06T05:29:23;2.15;;;1.38;;
41532;SDS011;27262;-35.248;149.138;2024-03-06T05:32:09;1.58;;;0.82;;
41532;SDS011;27262;-35.248;149.138;2024-03-06T05:34:56;2.30;;;1.05;;
41532;SDS011;27262;-35.248;149.138;2024-03-06T05:37:42;2.63;;;1.10;;
41532;SDS011;27262;-35.248;149.138;2024-03-06T05:40:29;3.05;;;1.08;;
41532;SDS011;27262;-35.248;149.138;2024-03-06T05:43:19;1.48;;;0.93;;
41532;SDS011;27262;-35.248;149.138;2024-03-06T05:46:06;3.50;;;1.00;;
41532;SDS011;27262;-35.248;149.138;2024-03-06T05:48:52;1.35;;;0.80;;
41532;SDS011;27262;-35.248;149.138;2024-03-06T05:51:38;2.00;;;0.90;;
41532;SDS011;27262;-35.248;149.138;2024-03-06T05:54:24;6.15;;;1.30;;
41532;SDS011;27262;-35.248;149.138;2024-03-06T05:57:11;3.85;;;1.40;;
41532;SDS011;27262;-35.248;149.138;2024-03-06T05:59:58;5.40;;;1.13;;
41532;SDS011;27262;-35.248;149.138;2024-03-06T06:02:28;4.40;;;1.30;;
41532;SDS011;27262;-35.248;149.138;2024-03-06T06:05:00;6.20;;;1.45;;
41532;SDS011;27262;-35.248;149.138;2024-03-06T06:07:49;3.15;;;0.98;;
41532;SDS011;27262;-35.248;149.138;2024-03-06T06:10:19;4.93;;;1.30;;
41532;SDS011;27262;-35.248;149.138;2024-03-06T06:12:50;2.47;;;0.90;;
41532;SDS011;27262;-35.248;149.138;2024-03-06T06:15:21;3.33;;;1.40;;
41532;SDS011;27262;-35.248;149.138;2024-03-06T06:17:51;4.88;;;1.30;;
41532;SDS011;27262;-35.248;149.138;2024-03-06T06:20:21;3.35;;;1.20;;
41532;SDS011;27262;-35.248;149.138;2024-03-06T06:22:52;4.28;;;1.10;;
41532;SDS011;27262;-35.248;149.138;2024-03-06T06:25:23;2.22;;;0.98;;
41532;SDS011;27262;-35.248;149.138;2024-03-06T06:27:54;1.75;;;1.10;;
41532;SDS011;27262;-35.248;149.138;2024-03-06T06:30:24;4.07;;;1.13;;
41532;SDS011;27262;-35.248;149.138;2024-03-06T06:32:55;2.92;;;1.20;;
41532;SDS011;27262;-35.248;149.138;2024-03-06T06:35:26;1.52;;;1.10;;
41532;SDS011;27262;-35.248;149.138;2024-03-06T06:37:56;2.53;;;0.93;;
41532;SDS011;27262;-35.248;149.138;2024-03-06T06:40:27;3.15;;;1.20;;
41532;SDS011;27262;-35.248;149.138;2024-03-06T06:42:58;1.77;;;1.08;;
41532;SDS011;27262;-35.248;149.138;2024-03-06T06:45:28;2.55;;;1.35;;
41532;SDS011;27262;-35.248;149.138;2024-03-06T06:47:59;3.13;;;1.17;;
41532;SDS011;27262;-35.248;149.138;2024-03-06T06:50:30;3.38;;;1.23;;
41532;SDS011;27262;-35.248;149.138;2024-03-06T06:53:02;2.78;;;1.20;;
41532;SDS011;27262;-35.248;149.138;2024-03-06T06:55:33;3.53;;;1.00;;
41532;SDS011;27262;-35.248;149.138;2024-03-06T06:58:04;2.28;;;1.20;;
41532;SDS011;27262;-35.248;149.138;2024-03-06T07:00:35;4.47;;;1.10;;
41532;SDS011;27262;-35.248;149.138;2024-03-06T07:03:06;4.88;;;1.35;;
41532;SDS011;27262;-35.248;149.138;2024-03-06T07:05:36;2.20;;;0.90;;
41532;SDS011;27262;-35.248;149.138;2024-03-06T07:08:07;3.08;;;0.95;;
41532;SDS011;27262;-35.248;149.138;2024-03-06T07:10:38;5.22;;;1.30;;
41532;SDS011;27262;-35.248;149.138;2024-03-06T07:13:08;1.85;;;0.93;;
41532;SDS011;27262;-35.248;149.138;2024-03-06T07:15:39;7.30;;;1.08;;
41532;SDS011;27262;-35.248;149.138;2024-03-06T07:18:10;3.00;;;1.10;;
41532;SDS011;27262;-35.248;149.138;2024-03-06T07:20:40;4.25;;;1.10;;
41532;SDS011;27262;-35.248;149.138;2024-03-06T07:23:10;2.75;;;1.00;;
41532;SDS011;27262;-35.248;149.138;2024-03-06T07:25:41;2.47;;;1.17;;
41532;SDS011;27262;-35.248;149.138;2024-03-06T07:28:12;3.33;;;1.38;;
41532;SDS011;27262;-35.248;149.138;2024-03-06T07:30:42;2.22;;;1.10;;
41532;SDS011;27262;-35.248;149.138;2024-03-06T07:33:12;6.45;;;1.33;;
41532;SDS011;27262;-35.248;149.138;2024-03-06T07:35:44;4.82;;;1.00;;
41532;SDS011;27262;-35.248;149.138;2024-03-06T07:38:14;4.78;;;1.20;;
41532;SDS011;27262;-35.248;149.138;2024-03-06T07:40:45;1.48;;;1.00;;
41532;SDS011;27262;-35.248;149.138;2024-03-06T07:43:15;1.65;;;0.90;;
41532;SDS011;27262;-35.248;149.138;2024-03-06T07:45:46;4.45;;;1.23;;
41532;SDS011;27262;-35.248;149.138;2024-03-06T07:48:17;6.10;;;1.00;;
41532;SDS011;27262;-35.248;149.138;2024-03-06T07:50:48;4.20;;;1.33;;
41532;SDS011;27262;-35.248;149.138;2024-03-06T07:53:18;5.28;;;1.25;;
41532;SDS011;27262;-35.248;149.138;2024-03-06T07:55:49;1.73;;;0.93;;
41532;SDS011;27262;-35.248;149.138;2024-03-06T07:58:19;2.80;;;1.40;;
41532;SDS011;27262;-35.248;149.138;2024-03-06T08:00:50;1.45;;;0.82;;
41532;SDS011;27262;-35.248;149.138;2024-03-06T08:03:24;4.85;;;1.42;;
41532;SDS011;27262;-35.248;149.138;2024-03-06T08:05:55;2.45;;;1.00;;
41532;SDS011;27262;-35.248;149.138;2024-03-06T08:08:28;1.98;;;1.15;;
41532;SDS011;27262;-35.248;149.138;2024-03-06T08:10:58;1.90;;;1.00;;
41532;SDS011;27262;-35.248;149.138;2024-03-06T08:13:29;3.25;;;1.40;;
41532;SDS011;27262;-35.248;149.138;2024-03-06T08:15:59;4.00;;;1.00;;
41532;SDS011;27262;-35.248;149.138;2024-03-06T08:18:30;3.72;;;1.15;;
41532;SDS011;27262;-35.248;149.138;2024-03-06T08:21:01;1.92;;;1.00;;
41532;SDS011;27262;-35.248;149.138;2024-03-06T08:23:33;2.90;;;1.27;;
41532;SDS011;27262;-35.248;149.138;2024-03-06T08:26:04;2.33;;;1.17;;
41532;SDS011;27262;-35.248;149.138;2024-03-06T08:28:34;2.78;;;1.23;;
41532;SDS011;27262;-35.248;149.138;2024-03-06T08:31:05;3.08;;;1.40;;
41532;SDS011;27262;-35.248;149.138;2024-03-06T08:33:36;4.68;;;1.60;;
41532;SDS011;27262;-35.248;149.138;2024-03-06T08:36:08;5.50;;;1.33;;
41532;SDS011;27262;-35.248;149.138;2024-03-06T08:38:38;4.63;;;1.70;;
41532;SDS011;27262;-35.248;149.138;2024-03-06T08:41:12;4.50;;;1.88;;
41532;SDS011;27262;-35.248;149.138;2024-03-06T08:43:42;4.53;;;1.67;;
41532;SDS011;27262;-35.248;149.138;2024-03-06T08:46:13;2.70;;;1.10;;
41532;SDS011;27262;-35.248;149.138;2024-03-06T08:48:43;4.30;;;1.67;;
41532;SDS011;27262;-35.248;149.138;2024-03-06T08:51:14;4.38;;;1.63;;
41532;SDS011;27262;-35.248;149.138;2024-03-06T08:53:45;2.60;;;1.40;;
41532;SDS011;27262;-35.248;149.138;2024-03-06T08:56:16;3.08;;;1.52;;
41532;SDS011;27262;-35.248;149.138;2024-03-06T08:58:47;3.78;;;1.73;;
41532;SDS011;27262;-35.248;149.138;2024-03-06T09:01:17;4.97;;;2.08;;
41532;SDS011;27262;-35.248;149.138;2024-03-06T09:03:47;2.72;;;1.67;;
41532;SDS011;27262;-35.248;149.138;2024-03-06T09:06:18;3.58;;;2.05;;
41532;SDS011;27262;-35.248;149.138;2024-03-06T09:08:48;6.18;;;1.83;;
41532;SDS011;27262;-35.248;149.138;2024-03-06T09:11:19;5.95;;;2.20;;
41532;SDS011;27262;-35.248;149.138;2024-03-06T09:13:49;3.80;;;1.67;;
41532;SDS011;27262;-35.248;149.138;2024-03-06T09:16:19;3.05;;;1.52;;
41532;SDS011;27262;-35.248;149.138;2024-03-06T09:18:49;3.03;;;1.67;;
41532;SDS011;27262;-35.248;149.138;2024-03-06T09:21:20;3.97;;;2.42;;
41532;SDS011;27262;-35.248;149.138;2024-03-06T09:23:50;3.33;;;1.65;;
41532;SDS011;27262;-35.248;149.138;2024-03-06T09:26:21;5.50;;;2.35;;
41532;SDS011;27262;-35.248;149.138;2024-03-06T09:28:51;4.30;;;1.63;;
41532;SDS011;27262;-35.248;149.138;2024-03-06T09:31:21;4.38;;;2.00;;
41532;SDS011;27262;-35.248;149.138;2024-03-06T09:33:52;4.47;;;1.75;;
41532;SDS011;27262;-35.248;149.138;2024-03-06T09:36:23;4.88;;;2.15;;
41532;SDS011;27262;-35.248;149.138;2024-03-06T09:38:54;4.57;;;2.08;;
41532;SDS011;27262;-35.248;149.138;2024-03-06T09:41:24;3.15;;;1.70;;
41532;SDS011;27262;-35.248;149.138;2024-03-06T09:43:55;4.03;;;2.13;;
41532;SDS011;27262;-35.248;149.138;2024-03-06T09:46:26;3.40;;;1.63;;
41532;SDS011;27262;-35.248;149.138;2024-03-06T09:48:57;5.25;;;2.10;;
41532;SDS011;27262;-35.248;149.138;2024-03-06T09:51:29;5.28;;;2.20;;
41532;SDS011;27262;-35.248;149.138;2024-03-06T09:54:00;4.90;;;1.83;;
41532;SDS011;27262;-35.248;149.138;2024-03-06T09:56:31;2.10;;;1.45;;
41532;SDS011;27262;-35.248;149.138;2024-03-06T09:59:02;3.95;;;1.98;;
41532;SDS011;27262;-35.248;149.138;2024-03-06T10:01:32;3.60;;;1.90;;
41532;SDS011;27262;-35.248;149.138;2024-03-06T10:04:20;2.30;;;1.80;;
41532;SDS011;27262;-35.248;149.138;2024-03-06T10:06:55;3.88;;;1.77;;
41532;SDS011;27262;-35.248;149.138;2024-03-06T10:09:26;3.60;;;1.60;;
41532;SDS011;27262;-35.248;149.138;2024-03-06T10:11:58;3.20;;;1.30;;
41532;SDS011;27262;-35.248;149.138;2024-03-06T10:14:32;3.13;;;1.45;;
41532;SDS011;27262;-35.248;149.138;2024-03-06T10:17:03;2.88;;;1.52;;
41532;SDS011;27262;-35.248;149.138;2024-03-06T10:19:33;3.75;;;1.63;;
41532;SDS011;27262;-35.248;149.138;2024-03-06T10:22:06;4.60;;;1.90;;
41532;SDS011;27262;-35.248;149.138;2024-03-06T10:24:37;3.70;;;1.80;;
41532;SDS011;27262;-35.248;149.138;2024-03-06T10:27:13;2.85;;;1.58;;
41532;SDS011;27262;-35.248;149.138;2024-03-06T10:30:00;2.55;;;1.48;;
41532;SDS011;27262;-35.248;149.138;2024-03-06T10:32:32;5.00;;;1.42;;
41532;SDS011;27262;-35.248;149.138;2024-03-06T10:35:03;3.28;;;1.73;;
41532;SDS011;27262;-35.248;149.138;2024-03-06T10:37:35;3.90;;;1.77;;
41532;SDS011;27262;-35.248;149.138;2024-03-06T10:40:09;3.08;;;1.25;;
41532;SDS011;27262;-35.248;149.138;2024-03-06T10:42:43;2.58;;;1.40;;
41532;SDS011;27262;-35.248;149.138;2024-03-06T10:45:15;2.92;;;1.45;;
41532;SDS011;27262;-35.248;149.138;2024-03-06T10:47:49;3.10;;;1.60;;
41532;SDS011;27262;-35.248;149.138;2024-03-06T10:50:20;5.82;;;1.90;;
41532;SDS011;27262;-35.248;149.138;2024-03-06T10:52:53;2.53;;;1.60;;
41532;SDS011;27262;-35.248;149.138;2024-03-06T10:55:24;4.28;;;1.60;;
41532;SDS011;27262;-35.248;149.138;2024-03-06T10:57:57;2.85;;;1.50;;
41532;SDS011;27262;-35.248;149.138;2024-03-06T11:00:28;3.50;;;1.75;;
41532;SDS011;27262;-35.248;149.138;2024-03-06T11:02:59;6.13;;;1.52;;
41532;SDS011;27262;-35.248;149.138;2024-03-06T11:05:36;4.50;;;1.73;;
41532;SDS011;27262;-35.248;149.138;2024-03-06T11:08:10;4.13;;;1.40;;
41532;SDS011;27262;-35.248;149.138;2024-03-06T11:10:41;2.78;;;1.52;;
41532;SDS011;27262;-35.248;149.138;2024-03-06T11:15:57;4.40;;;1.30;;
41532;SDS011;27262;-35.248;149.138;2024-03-06T11:23:34;3.80;;;1.35;;
41532;SDS011;27262;-35.248;149.138;2024-03-06T11:26:26;4.43;;;1.50;;
41532;SDS011;27262;-35.248;149.138;2024-03-06T11:28:58;2.80;;;1.50;;
41532;SDS011;27262;-35.248;149.138;2024-03-06T11:31:28;3.97;;;1.45;;
41532;SDS011;27262;-35.248;149.138;2024-03-06T11:34:01;4.05;;;1.70;;
41532;SDS011;27262;-35.248;149.138;2024-03-06T11:36:34;3.80;;;1.80;;
41532;SDS011;27262;-35.248;149.138;2024-03-06T11:39:06;3.80;;;1.50;;
41532;SDS011;27262;-35.248;149.138;2024-03-06T11:44:20;1.77;;;1.17;;
41532;SDS011;27262;-35.248;149.138;2024-03-06T11:47:02;3.10;;;1.23;;
41532;SDS011;27262;-35.248;149.138;2024-03-06T11:49:34;3.22;;;1.42;;
41532;SDS011;27262;-35.248;149.138;2024-03-06T11:52:09;5.18;;;1.65;;
41532;SDS011;27262;-35.248;149.138;2024-03-06T11:54:39;4.07;;;1.50;;
41532;SDS011;27262;-35.248;149.138;2024-03-06T11:57:09;3.83;;;1.30;;
41532;SDS011;27262;-35.248;149.138;2024-03-06T11:59:44;3.47;;;1.40;;
41532;SDS011;27262;-35.248;149.138;2024-03-06T12:02:15;2.90;;;1.70;;
41532;SDS011;27262;-35.248;149.138;2024-03-06T12:04:46;2.50;;;1.40;;
41532;SDS011;27262;-35.248;149.138;2024-03-06T12:07:16;2.60;;;1.40;;
41532;SDS011;27262;-35.248;149.138;2024-03-06T12:09:48;1.95;;;1.20;;
41532;SDS011;27262;-35.248;149.138;2024-03-06T12:12:19;2.88;;;1.20;;
41532;SDS011;27262;-35.248;149.138;2024-03-06T12:14:56;4.78;;;1.58;;
41532;SDS011;27262;-35.248;149.138;2024-03-06T12:17:28;3.33;;;1.83;;
41532;SDS011;27262;-35.248;149.138;2024-03-06T12:19:59;4.00;;;1.75;;
41532;SDS011;27262;-35.248;149.138;2024-03-06T12:22:31;2.28;;;1.48;;
41532;SDS011;27262;-35.248;149.138;2024-03-06T12:25:03;5.00;;;1.48;;
41532;SDS011;27262;-35.248;149.138;2024-03-06T12:27:33;2.80;;;1.20;;
41532;SDS011;27262;-35.248;149.138;2024-03-06T12:30:08;3.03;;;1.67;;
41532;SDS011;27262;-35.248;149.138;2024-03-06T12:32:41;3.15;;;1.42;;
41532;SDS011;27262;-35.248;149.138;2024-03-06T12:35:12;3.15;;;1.40;;
41532;SDS011;27262;-35.248;149.138;2024-03-06T12:37:52;2.08;;;1.30;;
41532;SDS011;27262;-35.248;149.138;2024-03-06T12:40:23;4.30;;;1.42;;
41532;SDS011;27262;-35.248;149.138;2024-03-06T12:42:54;2.65;;;1.40;;
41532;SDS011;27262;-35.248;149.138;2024-03-06T12:45:25;3.72;;;1.60;;
41532;SDS011;27262;-35.248;149.138;2024-03-06T12:47:56;2.15;;;1.50;;
41532;SDS011;27262;-35.248;149.138;2024-03-06T12:50:27;3.33;;;1.42;;
41532;SDS011;27262;-35.248;149.138;2024-03-06T12:52:57;2.45;;;1.50;;
41532;SDS011;27262;-35.248;149.138;2024-03-06T12:55:27;3.03;;;1.52;;
41532;SDS011;27262;-35.248;149.138;2024-03-06T12:57:59;2.38;;;1.25;;
41532;SDS011;27262;-35.248;149.138;2024-03-06T13:00:29;2.80;;;1.30;;
41532;SDS011;27262;-35.248;149.138;2024-03-06T13:02:59;3.83;;;1.30;;
41532;SDS011;27262;-35.248;149.138;2024-03-06T13:05:30;3.95;;;1.70;;
41532;SDS011;27262;-35.248;149.138;2024-03-06T13:08:00;2.70;;;1.15;;
41532;SDS011;27262;-35.248;149.138;2024-03-06T13:10:30;2.63;;;1.13;;
41532;SDS011;27262;-35.248;149.138;2024-03-06T13:13:01;1.50;;;1.02;;
41532;SDS011;27262;-35.248;149.138;2024-03-06T13:15:31;2.40;;;1.52;;
41532;SDS011;27262;-35.248;149.138;2024-03-06T13:18:08;2.47;;;1.15;;
41532;SDS011;27262;-35.248;149.138;2024-03-06T13:20:39;1.80;;;1.15;;
41532;SDS011;27262;-35.248;149.138;2024-03-06T13:23:09;2.42;;;1.50;;
41532;SDS011;27262;-35.248;149.138;2024-03-06T13:25:40;3.88;;;1.30;;
41532;SDS011;27262;-35.248;149.138;2024-03-06T13:28:10;4.28;;;1.20;;
41532;SDS011;27262;-35.248;149.138;2024-03-06T13:30:41;4.18;;;1.45;;
41532;SDS011;27262;-35.248;149.138;2024-03-06T13:33:11;3.65;;;1.48;;
41532;SDS011;27262;-35.248;149.138;2024-03-06T13:35:42;2.08;;;1.55;;
41532;SDS011;27262;-35.248;149.138;2024-03-06T13:38:13;3.33;;;1.30;;
41532;SDS011;27262;-35.248;149.138;2024-03-06T13:40:44;4.05;;;1.65;;
41532;SDS011;27262;-35.248;149.138;2024-03-06T13:43:14;2.95;;;1.50;;
41532;SDS011;27262;-35.248;149.138;2024-03-06T13:45:50;3.90;;;1.40;;
41532;SDS011;27262;-35.248;149.138;2024-03-06T13:48:21;2.65;;;1.38;;
41532;SDS011;27262;-35.248;149.138;2024-03-06T13:50:51;1.60;;;1.10;;
41532;SDS011;27262;-35.248;149.138;2024-03-06T13:53:22;2.00;;;1.33;;
41532;SDS011;27262;-35.248;149.138;2024-03-06T13:55:52;2.03;;;1.25;;
41532;SDS011;27262;-35.248;149.138;2024-03-06T13:58:22;1.83;;;1.30;;
41532;SDS011;27262;-35.248;149.138;2024-03-06T14:00:53;3.08;;;1.52;;
41532;SDS011;27262;-35.248;149.138;2024-03-06T14:03:23;2.33;;;1.48;;
41532;SDS011;27262;-35.248;149.138;2024-03-06T14:05:54;2.22;;;1.02;;
41532;SDS011;27262;-35.248;149.138;2024-03-06T14:08:24;2.25;;;1.30;;
41532;SDS011;27262;-35.248;149.138;2024-03-06T14:10:57;2.58;;;1.33;;
41532;SDS011;27262;-35.248;149.138;2024-03-06T14:13:29;2.58;;;1.13;;
41532;SDS011;27262;-35.248;149.138;2024-03-06T14:15:59;2.70;;;1.27;;
41532;SDS011;27262;-35.248;149.138;2024-03-06T14:18:29;1.55;;;1.15;;
41532;SDS011;27262;-35.248;149.138;2024-03-06T14:21:00;3.58;;;1.45;;
41532;SDS011;27262;-35.248;149.138;2024-03-06T14:23:30;2.05;;;1.30;;
41532;SDS011;27262;-35.248;149.138;2024-03-06T14:26:01;2.63;;;1.48;;
41532;SDS011;27262;-35.248;149.138;2024-03-06T14:28:31;2.42;;;1.35;;
41532;SDS011;27262;-35.248;149.138;2024-03-06T14:31:01;1.73;;;1.30;;
41532;SDS011;27262;-35.248;149.138;2024-03-06T14:33:32;1.88;;;1.33;;
41532;SDS011;27262;-35.248;149.138;2024-03-06T14:36:02;2.35;;;1.30;;
41532;SDS011;27262;-35.248;149.138;2024-03-06T14:38:33;2.00;;;1.02;;
41532;SDS011;27262;-35.248;149.138;2024-03-06T14:41:03;1.60;;;1.00;;
41532;SDS011;27262;-35.248;149.138;2024-03-06T14:43:38;2.38;;;0.88;;
41532;SDS011;27262;-35.248;149.138;2024-03-06T14:46:08;4.15;;;1.15;;
41532;SDS011;27262;-35.248;149.138;2024-03-06T14:48:43;2.03;;;1.20;;